Time;durP1;ratioP1;P1;durP2;ratioP2;P2;SDS_P1;SDS_P2;PMS_P1;PMS_P2;Temp;Humidity;BMP_temperature;BMP_pressure;BME280_temperature;BME280_humidity;BME280_pressure;Samples;Min_cycle;Max_cycle;Signal;HPM_P1;HPM_P2
2024/04/09 00:02:40;;;;;;;30.53;5.03;;;19.10;82.30;;;;;;5496400;25;20553;-80
2024/04/09 00:05:27;;;;;;;29.93;4.53;;;19.10;88.20;;;;;;5492376;26;20874;-84
2024/04/09 00:08:12;;;;;;;34.17;6.40;;;19.00;87.90;;;;;;5488298;26;20506;-81
2024/04/09 00:11:00;;;;;;;21.67;4.20;;;18.90;92.50;;;;;;5497658;26;20490;-80
2024/04/09 00:13:45;;;;;;;17.00;4.20;;;18.80;95.20;;;;;;5481777;26;20582;-81
2024/04/09 00:16:39;;;;;;;27.53;6.60;;;18.80;97.10;;;;;;5476870;26;20532;-81
2024/04/09 00:19:29;;;;;;;35.53;5.30;;;18.70;94.00;;;;;;5484958;26;20509;-82
2024/04/09 00:22:13;;;;;;;29.23;4.40;;;18.60;97.40;;;;;;5475115;26;20554;-81
2024/04/09 00:25:00;;;;;;;19.17;4.00;;;18.50;99.90;;;;;;5481401;26;20503;-81
2024/04/09 00:27:45;;;;;;;33.40;4.90;;;18.60;99.90;;;;;;5490364;26;20558;-84
2024/04/09 00:30:34;;;;;;;20.70;3.93;;;18.50;99.90;;;;;;5491803;25;20538;-84
2024/04/09 00:33:23;;;;;;;22.43;5.20;;;18.50;99.90;;;;;;5492495;26;20513;-84
2024/04/09 00:36:12;;;;;;;30.80;5.20;;;18.50;99.90;;;;;;5496297;26;20518;-84
2024/04/09 00:39:00;;;;;;;30.97;5.80;;;18.50;99.90;;;;;;5492237;26;20927;-84
2024/04/09 00:41:49;;;;;;;36.10;5.37;;;18.40;99.90;;;;;;5480690;26;20500;-84
2024/04/09 00:44:36;;;;;;;20.83;4.23;;;18.40;99.90;;;;;;5481531;26;20509;-84
2024/04/09 00:47:23;;;;;;;26.30;5.00;;;18.30;99.90;;;;;;5490977;26;20502;-83
2024/04/09 00:50:11;;;;;;;23.80;4.90;;;18.20;99.90;;;;;;5491385;25;20535;-83
2024/04/09 00:53:01;;;;;;;28.37;5.23;;;18.20;99.90;;;;;;5497505;26;20546;-83
2024/04/09 00:55:47;;;;;;;33.67;5.43;;;18.20;99.70;;;;;;5482641;26;20518;-83
2024/04/09 00:58:34;;;;;;;21.40;4.40;;;18.10;99.30;;;;;;5486815;26;20510;-82
2024/04/09 01:01:19;;;;;;;25.87;4.20;;;18.10;99.40;;;;;;5484331;26;20509;-83
2024/04/09 01:04:06;;;;;;;28.27;4.80;;;18.10;99.00;;;;;;5474992;26;20500;-84
2024/04/09 01:06:54;;;;;;;24.70;5.60;;;18.10;98.00;;;;;;5489838;26;20527;-84
2024/04/09 01:09:43;;;;;;;22.67;5.10;;;18.00;98.50;;;;;;5493410;26;20582;-82
2024/04/09 01:12:28;;;;;;;27.50;4.00;;;17.90;97.90;;;;;;5481276;26;20936;-84
2024/04/09 01:15:17;;;;;;;24.23;4.60;;;17.80;96.40;;;;;;5482384;26;20551;-82
2024/04/09 01:18:02;;;;;;;19.90;5.47;;;17.80;97.50;;;;;;5483234;26;21064;-82
2024/04/09 01:20:49;;;;;;;18.50;5.43;;;17.70;97.40;;;;;;5485689;26;20558;-84
2024/04/09 01:23:36;;;;;;;23.47;4.50;;;17.70;98.50;;;;;;5489885;26;20515;-84
2024/04/09 01:26:24;;;;;;;19.60;5.03;;;17.60;98.20;;;;;;5484465;26;20511;-84
2024/04/09 01:29:09;;;;;;;38.30;5.10;;;17.60;98.80;;;;;;5507656;26;20511;-82
2024/04/09 01:31:57;;;;;;;23.27;5.03;;;17.60;98.90;;;;;;5497557;26;20501;-83
2024/04/09 01:34:44;;;;;;;28.17;5.90;;;17.50;97.90;;;;;;5495196;26;20506;-84
2024/04/09 01:37:29;;;;;;;23.07;5.03;;;17.40;99.80;;;;;;5494150;26;21057;-82
2024/04/09 01:40:18;;;;;;;24.20;4.83;;;17.30;99.80;;;;;;5487993;26;20557;-83
2024/04/09 01:43:03;;;;;;;29.10;4.90;;;17.30;99.80;;;;;;5490538;26;20485;-84
2024/04/09 01:45:52;;;;;;;36.53;4.43;;;17.20;99.80;;;;;;5489561;26;20512;-83
2024/04/09 01:48:37;;;;;;;19.13;4.97;;;17.30;99.90;;;;;;5490057;26;20520;-83
2024/04/09 01:51:24;;;;;;;21.73;5.37;;;17.20;99.90;;;;;;5489498;26;21131;-83
2024/04/09 01:54:09;;;;;;;42.27;5.47;;;17.20;99.90;;;;;;5490207;26;20512;-84
2024/04/09 01:56:59;;;;;;;29.10;5.80;;;17.10;99.90;;;;;;5486519;26;20481;-83
2024/04/09 01:59:43;;;;;;;19.27;4.30;;;17.10;99.90;;;;;;5492961;26;20548;-84
2024/04/09 02:02:31;;;;;;;27.37;5.23;;;17.10;99.90;;;;;;5495442;26;20839;-82
2024/04/09 02:05:18;;;;;;;36.43;5.00;;;17.10;99.90;;;;;;5485200;26;20478;-83
2024/04/09 02:08:07;;;;;;;20.80;4.90;;;17.10;99.90;;;;;;5489894;26;20582;-83
2024/04/09 02:10:52;;;;;;;24.67;5.80;;;17.10;99.90;;;;;;5487728;26;21033;-83
2024/04/09 02:13:43;;;;;;;30.03;4.83;;;17.20;99.90;;;;;;5484951;26;20504;-82
2024/04/09 02:16:28;;;;;;;23.97;6.07;;;17.20;99.90;;;;;;5481412;26;20543;-84
2024/04/09 02:19:15;;;;;;;25.97;5.50;;;17.10;99.90;;;;;;5491277;26;20549;-83
2024/04/09 02:22:00;;;;;;;23.13;5.80;;;17.10;99.90;;;;;;5481028;26;20526;-84
2024/04/09 02:24:47;;;;;;;27.57;6.00;;;17.20;99.90;;;;;;5480459;26;20523;-84
2024/04/09 02:27:32;;;;;;;38.93;6.27;;;17.10;99.90;;;;;;5489611;26;20507;-82
2024/04/09 02:30:22;;;;;;;18.07;4.90;;;17.10;99.90;;;;;;5481341;26;20489;-82
2024/04/09 02:33:07;;;;;;;23.70;5.40;;;17.10;99.90;;;;;;5488452;26;20495;-82
2024/04/09 02:35:58;;;;;;;27.90;6.13;;;17.00;99.90;;;;;;5487988;26;20510;-82
2024/04/09 02:38:43;;;;;;;33.80;5.97;;;16.90;99.90;;;;;;5495331;26;20518;-83
2024/04/09 02:41:31;;;;;;;33.57;5.50;;;16.90;99.90;;;;;;5497090;26;20485;-83
2024/04/09 02:44:15;;;;;;;26.00;5.13;;;16.90;99.90;;;;;;5496075;26;21132;-83
2024/04/09 02:47:06;;;;;;;21.83;5.63;;;16.80;99.90;;;;;;5484104;26;20478;-83
2024/04/09 02:49:52;;;;;;;18.13;5.03;;;16.70;99.90;;;;;;5486390;26;20549;-84
2024/04/09 02:52:39;;;;;;;25.23;4.00;;;16.70;99.90;;;;;;5476574;26;20485;-82
2024/04/09 02:55:24;;;;;;;22.87;4.80;;;16.60;99.90;;;;;;5491148;26;20497;-82
2024/04/09 02:58:13;;;;;;;20.27;5.73;;;16.60;99.90;;;;;;5508290;26;20495;-84
2024/04/09 03:01:04;;;;;;;21.93;4.73;;;16.60;99.90;;;;;;5504487;26;20537;-84
2024/04/09 03:03:55;;;;;;;24.33;5.20;;;16.60;99.90;;;;;;5482958;26;20504;-84
2024/04/09 03:06:40;;;;;;;19.73;5.40;;;16.50;99.90;;;;;;5496623;26;20467;-84
2024/04/09 03:09:28;;;;;;;13.87;4.03;;;16.30;99.90;;;;;;5490074;26;20489;-82
2024/04/09 03:12:13;;;;;;;29.33;4.90;;;16.30;99.90;;;;;;5494510;26;20473;-82
2024/04/09 03:15:00;;;;;;;21.70;4.90;;;16.20;99.90;;;;;;5477347;26;20562;-84
2024/04/09 03:17:45;;;;;;;25.20;4.70;;;16.20;99.90;;;;;;5458813;26;20524;-83
2024/04/09 03:20:34;;;;;;;26.00;4.37;;;16.20;99.90;;;;;;5474747;26;20507;-84
2024/04/09 03:23:19;;;;;;;26.63;4.03;;;16.20;99.90;;;;;;5493042;26;20879;-84
2024/04/09 03:26:08;;;;;;;19.50;5.80;;;16.10;99.90;;;;;;5501951;26;20605;-84
2024/04/09 03:28:53;;;;;;;24.47;5.23;;;16.00;99.90;;;;;;5466037;26;21032;-83
2024/04/09 03:31:40;;;;;;;24.33;5.67;;;15.90;99.90;;;;;;5487319;26;20529;-82
2024/04/09 03:34:25;;;;;;;23.40;5.10;;;15.90;99.90;;;;;;5486954;26;20562;-83
2024/04/09 03:37:15;;;;;;;33.13;5.23;;;15.90;99.90;;;;;;5483873;26;20951;-84
2024/04/09 03:40:03;;;;;;;26.13;5.60;;;15.90;99.90;;;;;;5475034;26;20528;-84
2024/04/09 03:42:50;;;;;;;49.63;5.27;;;15.90;99.90;;;;;;5478271;26;20507;-84
2024/04/09 03:45:36;;;;;;;18.40;4.80;;;15.90;99.90;;;;;;5484330;26;20511;-83
2024/04/09 03:48:23;;;;;;;31.53;6.30;;;16.00;99.90;;;;;;5486117;26;21773;-84
2024/04/09 03:51:08;;;;;;;28.03;5.77;;;16.00;99.90;;;;;;5500939;26;20502;-84
2024/04/09 03:53:58;;;;;;;20.10;5.13;;;16.00;99.90;;;;;;5490241;26;20495;-84
2024/04/09 03:56:43;;;;;;;25.63;4.37;;;16.00;99.90;;;;;;5494961;26;20506;-84
2024/04/09 03:59:30;;;;;;;22.97;6.23;;;16.10;99.90;;;;;;5484465;26;20855;-83
2024/04/09 04:02:15;;;;;;;34.60;5.80;;;16.10;99.90;;;;;;5488381;26;20527;-84
2024/04/09 04:05:02;;;;;;;32.23;6.97;;;16.10;99.90;;;;;;5482836;26;20535;-83
2024/04/09 04:07:46;;;;;;;24.63;5.10;;;16.10;99.90;;;;;;5489919;26;20498;-83
2024/04/09 04:10:36;;;;;;;32.47;5.43;;;16.20;99.90;;;;;;5500401;26;20561;-82
2024/04/09 04:13:23;;;;;;;21.70;5.00;;;16.30;99.90;;;;;;5486583;26;20554;-82
2024/04/09 04:16:12;;;;;;;25.90;4.57;;;16.40;99.60;;;;;;5469190;26;20491;-83
2024/04/09 04:18:57;;;;;;;29.97;6.83;;;16.70;91.00;;;;;;5478671;26;21117;-84
2024/04/09 04:21:44;;;;;;;29.13;4.87;;;17.10;74.50;;;;;;5475838;26;20497;-84
2024/04/09 04:24:29;;;;;;;27.63;4.40;;;17.60;68.20;;;;;;5484378;26;20509;-84
2024/04/09 04:27:19;;;;;;;20.53;6.40;;;17.80;66.80;;;;;;5478298;26;20508;-84
2024/04/09 04:30:05;;;;;;;23.43;4.87;;;18.00;66.50;;;;;;5480174;26;21051;-82
2024/04/09 04:32:52;;;;;;;31.43;4.83;;;18.10;62.60;;;;;;5484655;26;21036;-84
2024/04/09 04:35:39;;;;;;;19.10;4.53;;;18.30;60.60;;;;;;5480924;26;20505;-83
2024/04/09 04:38:24;;;;;;;24.90;3.93;;;18.40;60.40;;;;;;5482293;26;20512;-84
2024/04/09 04:41:12;;;;;;;17.77;3.43;;;18.40;58.40;;;;;;5480347;26;21054;-83
2024/04/09 04:43:59;;;;;;;12.57;2.90;;;18.60;53.90;;;;;;5481884;26;20482;-82
2024/04/09 04:46:47;;;;;;;14.90;3.40;;;18.70;51.90;;;;;;5483192;26;20547;-84
2024/04/09 04:49:31;;;;;;;17.83;3.50;;;18.80;49.70;;;;;;5482381;26;20504;-83
2024/04/09 04:52:19;;;;;;;22.83;3.27;;;18.80;48.30;;;;;;5490111;26;20486;-84
2024/04/09 04:55:04;;;;;;;19.33;2.80;;;18.80;47.00;;;;;;5489589;26;20899;-82
2024/04/09 04:57:52;;;;;;;11.90;3.00;;;18.80;47.20;;;;;;5481371;26;20581;-83
2024/04/09 05:00:39;;;;;;;15.27;4.50;;;18.80;48.00;;;;;;5482130;26;20521;-84
2024/04/09 05:03:27;;;;;;;21.10;3.30;;;18.80;47.40;;;;;;5488477;26;20527;-84
2024/04/09 05:06:12;;;;;;;16.73;3.33;;;18.80;51.20;;;;;;5489598;26;20483;-84
2024/04/09 05:08:59;;;;;;;15.43;3.40;;;18.80;49.00;;;;;;5486506;26;20497;-83
2024/04/09 05:11:45;;;;;;;9.43;2.77;;;18.80;48.30;;;;;;5491007;26;20495;-84
2024/04/09 05:14:33;;;;;;;15.93;2.97;;;18.80;49.70;;;;;;5489854;26;20521;-83
2024/04/09 05:17:23;;;;;;;13.07;2.60;;;18.80;47.40;;;;;;5485683;26;20505;-82
2024/04/09 05:20:09;;;;;;;12.47;3.60;;;18.80;48.80;;;;;;5481052;26;21146;-84
2024/04/09 05:22:57;;;;;;;10.23;3.10;;;18.70;52.20;;;;;;5482802;26;20518;-84
2024/04/09 05:25:45;;;;;;;6.93;2.20;;;18.70;50.00;;;;;;5492360;26;20476;-83
2024/04/09 05:28:30;;;;;;;9.20;2.13;;;18.70;49.00;;;;;;5484012;26;20572;-83
2024/04/09 05:31:17;;;;;;;11.00;2.70;;;18.70;48.60;;;;;;5484733;26;20479;-84
2024/04/09 05:34:04;;;;;;;7.20;2.30;;;18.70;50.00;;;;;;5493412;26;20503;-83
2024/04/09 05:36:52;;;;;;;8.43;2.50;;;18.80;52.00;;;;;;5490696;26;20883;-83
2024/04/09 05:39:37;;;;;;;9.00;2.20;;;18.80;49.70;;;;;;5480339;26;20564;-84
2024/04/09 05:42:23;;;;;;;15.30;2.57;;;18.70;51.10;;;;;;5490790;26;20603;-84
2024/04/09 05:45:10;;;;;;;11.73;3.03;;;18.70;51.90;;;;;;5495961;26;20501;-83
2024/04/09 05:47:57;;;;;;;7.03;2.07;;;18.70;51.90;;;;;;5499390;26;20484;-82
2024/04/09 05:50:45;;;;;;;10.80;2.17;;;18.70;54.40;;;;;;5479896;26;20493;-82
2024/04/09 05:53:32;;;;;;;16.10;2.60;;;18.70;55.80;;;;;;5495364;26;20515;-83
2024/04/09 05:56:17;;;;;;;9.43;2.13;;;18.70;54.90;;;;;;5494610;26;21109;-83
2024/04/09 05:59:04;;;;;;;11.13;2.70;;;18.60;55.30;;;;;;5492065;26;21072;-83
2024/04/09 06:01:50;;;;;;;5.17;1.60;;;18.40;58.30;;;;;;5483491;26;20553;-83
2024/04/09 06:04:38;;;;;;;5.53;1.60;;;18.30;60.60;;;;;;5482630;26;20508;-83
2024/04/09 06:07:28;;;;;;;10.90;1.90;;;18.20;62.60;;;;;;5486317;26;20833;-84
2024/04/09 06:10:17;;;;;;;10.20;2.03;;;18.20;63.70;;;;;;5471242;26;20536;-83
2024/04/09 06:13:02;;;;;;;5.87;2.00;;;18.10;66.30;;;;;;5483415;26;20507;-83
2024/04/09 06:15:49;;;;;;;5.70;1.83;;;18.00;67.90;;;;;;5484011;26;20507;-83
2024/04/09 06:18:34;;;;;;;5.63;2.17;;;17.90;70.10;;;;;;5486647;26;20563;-82
2024/04/09 06:21:21;;;;;;;6.50;2.50;;;17.80;72.40;;;;;;5478191;26;20517;-84
2024/04/09 06:24:08;;;;;;;7.47;2.70;;;17.70;75.80;;;;;;5482851;26;20485;-83
2024/04/09 06:26:56;;;;;;;6.13;2.27;;;17.70;77.10;;;;;;5490745;26;20547;-83
2024/04/09 06:29:41;;;;;;;7.10;2.13;;;17.70;81.00;;;;;;5496128;25;20488;-83
2024/04/09 06:32:30;;;;;;;10.70;2.83;;;17.70;82.00;;;;;;5497420;26;21054;-83
2024/04/09 06:35:15;;;;;;;9.10;2.00;;;17.70;83.30;;;;;;5491721;26;20541;-81
2024/04/09 06:38:02;;;;;;;4.83;2.07;;;17.60;83.60;;;;;;5486499;26;20548;-82
2024/04/09 06:40:53;;;;;;;7.50;1.80;;;17.50;85.90;;;;;;5496435;26;20593;-83
2024/04/09 06:43:41;;;;;;;4.63;2.43;;;17.50;85.90;;;;;;5485088;26;20540;-81
2024/04/09 06:46:28;;;;;;;5.90;1.87;;;17.50;85.90;;;;;;5490253;26;20517;-82
2024/04/09 06:49:15;;;;;;;6.13;1.90;;;17.40;87.00;;;;;;5505482;26;20598;-82
2024/04/09 06:52:00;;;;;;;5.97;2.00;;;17.40;89.10;;;;;;5504529;26;20523;-81
2024/04/09 06:54:48;;;;;;;5.03;1.60;;;17.40;87.80;;;;;;5492652;26;20539;-83
2024/04/09 06:57:35;;;;;;;7.27;1.70;;;17.50;88.30;;;;;;5490659;26;20899;-83
2024/04/09 07:00:23;;;;;;;8.90;1.70;;;17.50;88.20;;;;;;5492383;26;20525;-83
2024/04/09 07:03:08;;;;;;;3.27;1.30;;;17.60;87.70;;;;;;5492632;26;20502;-83
2024/04/09 07:05:55;;;;;;;5.17;1.20;;;17.60;86.70;;;;;;5495887;26;20495;-83
2024/04/09 07:08:39;;;;;;;2.80;1.10;;;17.60;86.50;;;;;;5497061;26;20484;-83
2024/04/09 07:11:27;;;;;;;4.33;1.50;;;17.60;86.50;;;;;;5486836;26;20520;-82
2024/04/09 07:14:17;;;;;;;4.07;1.37;;;17.60;86.20;;;;;;5498888;26;20512;-82
2024/04/09 07:17:02;;;;;;;4.40;1.03;;;17.50;88.00;;;;;;5484345;26;20525;-81
2024/04/09 07:19:49;;;;;;;3.07;1.23;;;17.40;89.00;;;;;;5493453;26;20558;-83
2024/04/09 07:22:34;;;;;;;2.43;1.30;;;17.40;89.20;;;;;;5487262;26;20523;-82
2024/04/09 07:25:21;;;;;;;3.20;1.97;;;17.30;88.50;;;;;;5478802;26;20594;-79
2024/04/09 07:28:06;;;;;;;4.53;1.13;;;17.20;88.70;;;;;;5487454;26;21087;-82
2024/04/09 07:30:56;;;;;;;3.03;0.80;;;16.90;87.40;;;;;;5484937;26;21402;-82
2024/04/09 07:33:41;;;;;;;2.87;0.90;;;16.90;85.10;;;;;;5491141;26;20521;-83
2024/04/09 07:36:28;;;;;;;2.17;0.90;;;16.80;82.60;;;;;;5501491;26;20498;-83
2024/04/09 07:39:14;;;;;;;2.10;1.10;;;16.70;81.20;;;;;;5505609;25;20906;-83
2024/04/09 07:42:02;;;;;;;2.03;1.13;;;16.70;80.60;;;;;;5505688;26;20483;-82
2024/04/09 07:44:46;;;;;;;2.50;1.10;;;16.50;81.00;;;;;;5504008;26;21085;-83
2024/04/09 07:47:37;;;;;;;3.23;0.97;;;16.30;79.80;;;;;;5497011;26;20463;-84
2024/04/09 07:50:22;;;;;;;4.63;1.20;;;16.30;81.20;;;;;;5497859;26;20562;-84
2024/04/09 07:53:09;;;;;;;2.40;0.97;;;16.20;82.70;;;;;;5489818;26;20838;-82
2024/04/09 07:55:54;;;;;;;2.47;1.20;;;16.20;81.50;;;;;;5496859;26;20486;-84
2024/04/09 07:58:42;;;;;;;1.90;0.80;;;16.10;83.50;;;;;;5489753;26;20495;-84
2024/04/09 08:01:27;;;;;;;1.80;0.90;;;16.00;83.80;;;;;;5491114;26;20478;-83
2024/04/09 08:04:17;;;;;;;3.73;0.90;;;15.70;84.30;;;;;;5488228;26;20481;-82
2024/04/09 08:07:02;;;;;;;2.40;0.60;;;15.60;86.50;;;;;;5489072;26;20535;-82
2024/04/09 08:09:50;;;;;;;1.50;0.60;;;15.60;87.20;;;;;;5489451;26;20823;-81
2024/04/09 08:12:35;;;;;;;1.50;0.67;;;15.40;89.10;;;;;;5482537;26;20943;-81
2024/04/09 08:15:23;;;;;;;2.93;0.73;;;15.20;90.30;;;;;;5488776;26;20499;-82
2024/04/09 08:18:08;;;;;;;3.30;0.93;;;15.20;92.10;;;;;;5489455;26;20503;-83
2024/04/09 08:20:58;;;;;;;2.80;1.03;;;15.20;91.80;;;;;;5488709;26;20530;-82
2024/04/09 08:23:43;;;;;;;1.60;0.70;;;15.20;91.70;;;;;;5476985;26;20505;-82
2024/04/09 08:26:30;;;;;;;3.47;0.87;;;15.20;90.20;;;;;;5484253;26;20593;-81
2024/04/09 08:29:16;;;;;;;1.60;0.70;;;15.10;89.80;;;;;;5470266;26;21323;-83
2024/04/09 08:32:03;;;;;;;2.03;0.80;;;15.10;90.30;;;;;;5476349;26;20508;-83
2024/04/09 08:34:48;;;;;;;2.13;0.73;;;15.20;90.10;;;;;;5473469;26;20529;-84
2024/04/09 08:37:38;;;;;;;3.77;0.90;;;15.00;88.10;;;;;;5488233;26;20561;-82
2024/04/09 08:40:27;;;;;;;3.70;0.80;;;14.80;86.80;;;;;;5482550;26;20542;-83
2024/04/09 08:43:15;;;;;;;2.10;0.83;;;14.80;87.80;;;;;;5501301;26;20473;-82
2024/04/09 08:46:03;;;;;;;2.50;0.90;;;14.80;85.20;;;;;;5497373;26;20526;-81
2024/04/09 08:48:48;;;;;;;4.27;0.90;;;14.80;83.30;;;;;;5478202;26;20876;-84
2024/04/09 08:51:36;;;;;;;1.90;0.70;;;14.70;83.50;;;;;;5484376;26;20481;-84
2024/04/09 08:54:24;;;;;;;2.90;1.03;;;14.60;83.10;;;;;;5485950;26;20469;-83
2024/04/09 08:57:11;;;;;;;2.93;1.00;;;14.30;83.50;;;;;;5489361;26;20521;-83
2024/04/09 08:59:57;;;;;;;3.13;1.00;;;14.40;85.00;;;;;;5493910;26;21039;-82
2024/04/09 09:02:44;;;;;;;3.43;1.00;;;14.50;85.20;;;;;;5492108;26;20498;-84
2024/04/09 09:05:29;;;;;;;3.90;0.97;;;14.50;80.90;;;;;;5495153;26;21040;-82
2024/04/09 09:08:16;;;;;;;3.03;1.20;;;14.60;82.20;;;;;;5497843;26;20557;-84
2024/04/09 09:11:07;;;;;;;3.50;1.30;;;14.60;74.40;;;;;;5504618;26;20511;-83
2024/04/09 09:13:52;;;;;;;4.37;0.90;;;14.70;73.00;;;;;;5494253;26;20828;-84
2024/04/09 09:16:39;;;;;;;4.53;1.30;;;14.70;65.00;;;;;;5487153;26;20468;-83
2024/04/09 09:19:24;;;;;;;2.03;0.80;;;14.50;63.40;;;;;;5479927;26;21159;-83
2024/04/09 09:22:12;;;;;;;1.93;0.80;;;14.40;63.20;;;;;;5493060;26;20501;-82
2024/04/09 09:24:57;;;;;;;4.43;1.00;;;14.40;63.60;;;;;;5501179;26;21043;-82
2024/04/09 09:27:48;;;;;;;7.57;0.97;;;14.40;63.30;;;;;;5490885;26;20572;-83
2024/04/09 09:30:42;;;;;;;2.90;1.00;;;14.50;62.40;;;;;;5507073;25;20511;-82
2024/04/09 09:33:31;;;;;;;6.57;1.10;;;14.50;61.70;;;;;;5498732;26;20490;-82
2024/04/09 09:36:18;;;;;;;3.30;1.00;;;14.50;59.20;;;;;;5490925;26;20534;-83
2024/04/09 09:39:06;;;;;;;3.90;1.10;;;14.40;59.60;;;;;;5492690;26;20482;-82
2024/04/09 09:41:53;;;;;;;3.90;1.27;;;14.10;57.30;;;;;;5496183;26;20515;-83
2024/04/09 09:44:45;;;;;;;2.37;1.20;;;14.00;60.00;;;;;;5488157;26;20480;-83
2024/04/09 09:47:32;;;;;;;3.10;1.50;;;14.10;61.40;;;;;;5480102;26;20550;-82
2024/04/09 09:50:20;;;;;;;2.90;1.00;;;14.10;61.70;;;;;;5488635;26;20577;-84
2024/04/09 09:53:07;;;;;;;4.37;1.30;;;14.00;60.00;;;;;;5487240;26;20484;-83
2024/04/09 09:55:57;;;;;;;2.10;0.90;;;13.90;60.00;;;;;;5483393;26;20551;-81
2024/04/09 09:58:42;;;;;;;5.90;1.20;;;13.80;60.30;;;;;;5484633;26;20490;-83
2024/04/09 10:01:33;;;;;;;2.67;1.13;;;14.00;60.10;;;;;;5479905;26;21140;-79
2024/04/09 10:04:18;;;;;;;2.93;1.00;;;14.00;58.80;;;;;;5484649;26;20514;-85
2024/04/09 10:07:07;;;;;;;3.50;0.67;;;14.00;55.90;;;;;;5480788;26;20488;-81
2024/04/09 10:09:52;;;;;;;3.50;1.00;;;13.90;54.40;;;;;;5488148;26;20486;-82
2024/04/09 10:12:40;;;;;;;3.73;0.80;;;13.80;54.70;;;;;;5494502;26;20484;-84
2024/04/09 10:15:28;;;;;;;5.20;0.83;;;13.90;54.60;;;;;;5485835;26;20498;-83
2024/04/09 10:18:29;;;;;;;7.40;0.80;;;13.80;54.00;;;;;;5499413;26;20849;-83
2024/04/09 10:21:26;;;;;;;2.43;0.80;;;13.80;52.70;;;;;;5496523;26;20573;-82
2024/04/09 10:24:13;;;;;;;2.07;0.70;;;13.80;51.70;;;;;;5481384;26;20512;-85
2024/04/09 10:26:59;;;;;;;1.97;0.70;;;13.80;52.50;;;;;;5466847;26;21304;-83
2024/04/09 10:29:53;;;;;;;5.47;0.80;;;14.00;53.60;;;;;;5477960;25;20847;-82
2024/04/09 10:32:39;;;;;;;3.70;1.20;;;14.00;53.00;;;;;;5486260;26;20838;-80
2024/04/09 10:35:30;;;;;;;2.40;0.80;;;14.10;52.70;;;;;;5487500;26;20486;-85
2024/04/09 10:38:16;;;;;;;5.20;1.20;;;14.20;53.80;;;;;;5485330;26;20514;-82
2024/04/09 10:41:04;;;;;;;2.80;0.80;;;14.10;51.70;;;;;;5493460;26;20508;-82
2024/04/09 10:43:50;;;;;;;3.87;0.70;;;14.20;49.70;;;;;;5490605;26;20516;-84
2024/04/09 10:46:37;;;;;;;3.10;0.90;;;14.20;51.30;;;;;;5487301;26;20560;-82
2024/04/09 10:49:22;;;;;;;2.83;0.90;;;14.30;53.90;;;;;;5477522;26;20850;-81
2024/04/09 10:52:12;;;;;;;5.20;0.80;;;14.30;54.60;;;;;;5482678;26;21344;-83
2024/04/09 10:54:56;;;;;;;1.87;0.80;;;14.30;48.40;;;;;;5487781;26;20497;-81
2024/04/09 10:57:45;;;;;;;5.60;0.90;;;14.20;49.70;;;;;;5490520;26;20486;-82
2024/04/09 11:00:29;;;;;;;3.00;0.90;;;14.20;47.10;;;;;;5486971;26;20500;-82
2024/04/09 11:03:17;;;;;;;5.37;1.10;;;14.30;44.70;;;;;;5491375;26;20570;-85
2024/04/09 11:06:02;;;;;;;3.73;0.90;;;14.00;42.90;;;;;;5494466;26;20492;-82
2024/04/09 11:08:52;;;;;;;6.13;0.90;;;13.80;44.00;;;;;;5491232;26;21082;-83
2024/04/09 11:11:40;;;;;;;2.27;0.70;;;13.90;46.80;;;;;;5489921;26;20539;-82
2024/04/09 11:14:27;;;;;;;3.40;1.53;;;13.80;45.00;;;;;;5492619;26;20569;-84
2024/04/09 11:17:16;;;;;;;2.60;0.77;;;13.60;45.60;;;;;;5492502;26;20466;-81
2024/04/09 11:20:09;;;;;;;3.90;0.83;;;13.60;47.20;;;;;;5493577;25;20881;-83
2024/04/09 11:22:54;;;;;;;4.30;0.90;;;13.80;48.90;;;;;;5494984;26;20480;-82
2024/04/09 11:25:44;;;;;;;1.90;0.77;;;13.70;47.70;;;;;;5496950;26;20501;-84
2024/04/09 11:28:30;;;;;;;3.27;0.80;;;13.70;48.30;;;;;;5494631;26;20530;-81
2024/04/09 11:31:17;;;;;;;5.13;1.10;;;13.70;49.00;;;;;;5485287;26;20485;-81
2024/04/09 11:34:02;;;;;;;3.00;1.20;;;13.50;48.90;;;;;;5489029;26;20483;-80
2024/04/09 11:36:49;;;;;;;4.17;0.80;;;13.50;50.20;;;;;;5487810;26;20482;-85
2024/04/09 11:39:35;;;;;;;5.97;0.70;;;13.60;50.80;;;;;;5490459;26;20541;-82
2024/04/09 11:42:28;;;;;;;2.67;0.90;;;13.70;52.00;;;;;;5493065;26;20488;-83
2024/04/09 11:45:19;;;;;;;3.13;1.07;;;13.40;50.10;;;;;;5481208;26;20532;-80
2024/04/09 11:48:07;;;;;;;5.33;1.00;;;13.40;52.10;;;;;;5489285;26;20817;-82
2024/04/09 11:50:52;;;;;;;2.80;0.83;;;13.30;52.90;;;;;;5487438;26;20484;-84
2024/04/09 11:53:45;;;;;;;3.93;1.10;;;13.30;52.60;;;;;;5491987;26;20491;-82
2024/04/09 11:56:30;;;;;;;4.23;0.77;;;13.40;55.40;;;;;;5481617;26;21699;-81
2024/04/09 11:59:20;;;;;;;2.37;0.93;;;13.50;56.10;;;;;;5486033;26;20503;-82
2024/04/09 12:02:05;;;;;;;9.30;1.40;;;13.40;58.40;;;;;;5490733;26;20492;-81
2024/04/09 12:04:52;;;;;;;2.57;0.77;;;13.40;59.50;;;;;;5489297;26;21087;-82
2024/04/09 12:07:37;;;;;;;5.10;1.13;;;13.50;62.70;;;;;;5493021;26;20552;-81
2024/04/09 12:10:25;;;;;;;6.60;1.13;;;13.40;61.10;;;;;;5482889;26;20520;-81
2024/04/09 12:13:14;;;;;;;4.60;1.37;;;13.40;59.50;;;;;;5480591;26;20473;-83
2024/04/09 12:16:02;;;;;;;3.40;0.90;;;13.20;59.30;;;;;;5486377;26;20476;-85
2024/04/09 12:18:50;;;;;;;4.90;1.20;;;13.20;58.50;;;;;;5490898;26;20505;-84
2024/04/09 12:21:34;;;;;;;3.87;1.13;;;13.20;59.30;;;;;;5473427;26;20511;-83
2024/04/09 12:24:23;;;;;;;3.20;0.77;;;13.20;59.30;;;;;;5481599;26;20505;-84
2024/04/09 12:27:08;;;;;;;5.53;1.20;;;12.90;56.20;;;;;;5468864;26;21103;-81
2024/04/09 12:29:55;;;;;;;7.30;1.20;;;12.90;55.80;;;;;;5467210;26;20491;-79
2024/04/09 12:32:45;;;;;;;2.40;1.00;;;12.80;58.80;;;;;;5475571;26;20479;-82
2024/04/09 12:35:30;;;;;;;3.47;1.27;;;12.80;58.80;;;;;;5471011;26;21088;-82
2024/04/09 12:38:17;;;;;;;2.37;0.80;;;12.80;59.80;;;;;;5482466;26;21063;-81
2024/04/09 12:41:03;;;;;;;2.93;0.97;;;12.70;58.70;;;;;;5471744;26;20503;-80
2024/04/09 12:43:51;;;;;;;4.00;1.17;;;12.70;60.90;;;;;;5487302;26;20529;-80
2024/04/09 12:46:36;;;;;;;2.43;1.03;;;12.90;61.70;;;;;;5469007;26;20506;-82
2024/04/09 12:49:29;;;;;;;2.20;0.73;;;12.80;61.90;;;;;;5477735;26;20495;-81
2024/04/09 12:52:14;;;;;;;4.43;1.20;;;12.90;64.00;;;;;;5492417;26;20552;-82
2024/04/09 12:55:02;;;;;;;4.33;1.43;;;13.00;65.10;;;;;;5501650;26;20831;-82
2024/04/09 12:57:46;;;;;;;3.90;1.10;;;13.00;63.30;;;;;;5493508;26;20763;-85
2024/04/09 13:00:34;;;;;;;3.27;0.97;;;13.10;65.90;;;;;;5482561;26;20517;-82
2024/04/09 13:03:20;;;;;;;4.40;1.53;;;12.90;67.60;;;;;;5490336;26;20476;-82
2024/04/09 13:06:09;;;;;;;7.60;1.30;;;12.90;78.00;;;;;;5485725;26;20532;-83
2024/04/09 13:08:54;;;;;;;11.93;1.70;;;12.90;78.70;;;;;;5496624;26;20482;-82
2024/04/09 13:11:41;;;;;;;5.27;1.33;;;12.80;82.60;;;;;;5492686;26;20596;-81
2024/04/09 13:14:26;;;;;;;4.07;0.97;;;12.70;83.40;;;;;;5491659;26;20488;-81
2024/04/09 13:17:14;;;;;;;5.60;1.50;;;12.80;86.70;;;;;;5491870;26;21140;-81
2024/04/09 13:20:03;;;;;;;5.97;1.23;;;12.80;86.70;;;;;;5499436;25;20577;-83
2024/04/09 13:22:50;;;;;;;5.37;1.17;;;12.80;87.00;;;;;;5491285;26;20592;-81
2024/04/09 13:25:37;;;;;;;12.10;2.47;;;12.80;90.50;;;;;;5492472;26;20478;-82
2024/04/09 13:28:22;;;;;;;4.50;1.47;;;12.70;86.90;;;;;;5490042;26;20486;-81
2024/04/09 13:31:10;;;;;;;7.30;1.10;;;12.70;91.30;;;;;;5474925;26;20504;-82
2024/04/09 13:33:54;;;;;;;6.13;1.63;;;12.60;92.40;;;;;;5483271;26;20541;-82
2024/04/09 13:36:41;;;;;;;5.60;1.20;;;12.70;92.70;;;;;;5499489;26;20515;-81
2024/04/09 13:39:29;;;;;;;3.00;1.23;;;12.60;90.50;;;;;;5487535;26;20525;-82
2024/04/09 13:42:16;;;;;;;3.23;1.10;;;12.50;90.80;;;;;;5486095;26;20512;-81
2024/04/09 13:45:01;;;;;;;3.00;1.27;;;12.50;94.30;;;;;;5494223;25;21039;-84
2024/04/09 13:47:49;;;;;;;4.17;1.73;;;12.60;93.00;;;;;;5487710;26;20465;-82
2024/04/09 13:50:34;;;;;;;4.90;1.23;;;12.50;89.90;;;;;;5486338;26;20572;-82
2024/04/09 13:53:22;;;;;;;2.20;1.07;;;12.50;91.20;;;;;;5482320;26;20508;-85
2024/04/09 13:56:09;;;;;;;3.70;1.00;;;12.50;93.10;;;;;;5489888;26;20496;-81
2024/04/09 13:58:57;;;;;;;2.30;1.00;;;12.60;93.50;;;;;;5485259;26;20502;-82
2024/04/09 14:01:42;;;;;;;7.93;1.37;;;12.60;93.60;;;;;;5485056;26;20533;-80
2024/04/09 14:04:29;;;;;;;4.67;1.00;;;12.80;93.00;;;;;;5489682;26;20497;-83
2024/04/09 14:07:15;;;;;;;4.33;1.20;;;12.90;91.90;;;;;;5486499;26;21914;-85
2024/04/09 14:10:03;;;;;;;3.10;1.50;;;12.90;90.60;;;;;;5477610;26;20529;-80
2024/04/09 14:12:52;;;;;;;4.10;2.20;;;12.80;91.50;;;;;;5481667;26;20538;-81
2024/04/09 14:15:41;;;;;;;8.77;2.07;;;12.70;88.20;;;;;;5484880;26;20498;-83
2024/04/09 14:18:30;;;;;;;2.80;1.00;;;12.60;89.90;;;;;;5484905;26;20575;-82
2024/04/09 14:21:17;;;;;;;3.37;1.20;;;12.60;91.10;;;;;;5481977;26;20499;-81
2024/04/09 14:24:02;;;;;;;4.03;1.10;;;12.50;89.40;;;;;;5489851;26;20466;-82
2024/04/09 14:26:50;;;;;;;3.97;1.20;;;12.30;88.70;;;;;;5488777;26;20528;-84